sensor_id;sensor_type;location;lat;lon;timestamp;P1;durP1;ratioP1;P2;durP2;ratioP2
60714;SDS011;46564;53.096;8.246;2023-06-22T00:04:36;12.40;;;5.90;;
60714;SDS011;46564;53.096;8.246;2023-06-22T00:09:37;13.00;;;6.18;;
60714;SDS011;46564;53.096;8.246;2023-06-22T00:14:39;13.73;;;6.18;;
60714;SDS011;46564;53.096;8.246;2023-06-22T00:19:41;16.38;;;6.35;;
60714;SDS011;46564;53.096;8.246;2023-06-22T00:24:42;12.82;;;6.78;;
60714;SDS011;46564;53.096;8.246;2023-06-22T00:29:44;14.85;;;6.57;;
60714;SDS011;46564;53.096;8.246;2023-06-22T00:34:45;10.80;;;5.65;;
60714;SDS011;46564;53.096;8.246;2023-06-22T00:39:47;13.90;;;6.53;;
60714;SDS011;46564;53.096;8.246;2023-06-22T00:44:49;12.80;;;5.28;;
60714;SDS011;46564;53.096;8.246;2023-06-22T00:49:51;9.65;;;5.18;;
60714;SDS011;46564;53.096;8.246;2023-06-22T00:54:52;13.15;;;6.30;;
60714;SDS011;46564;53.096;8.246;2023-06-22T00:59:54;12.65;;;5.63;;
60714;SDS011;46564;53.096;8.246;2023-06-22T01:04:56;14.18;;;6.95;;
60714;SDS011;46564;53.096;8.246;2023-06-22T01:10:08;10.88;;;5.65;;
60714;SDS011;46564;53.096;8.246;2023-06-22T01:15:21;15.85;;;6.35;;
60714;SDS011;46564;53.096;8.246;2023-06-22T01:20:26;12.32;;;6.05;;
60714;SDS011;46564;53.096;8.246;2023-06-22T01:25:43;13.30;;;7.47;;
60714;SDS011;46564;53.096;8.246;2023-06-22T01:30:48;11.60;;;6.63;;
60714;SDS011;46564;53.096;8.246;2023-06-22T01:36:06;14.52;;;7.00;;
60714;SDS011;46564;53.096;8.246;2023-06-22T01:41:08;14.95;;;7.50;;
60714;SDS011;46564;53.096;8.246;2023-06-22T01:46:10;18.15;;;7.63;;
60714;SDS011;46564;53.096;8.246;2023-06-22T01:51:13;13.00;;;7.40;;
60714;SDS011;46564;53.096;8.246;2023-06-22T01:56:17;13.80;;;6.97;;
60714;SDS011;46564;53.096;8.246;2023-06-22T02:01:25;11.80;;;6.60;;
60714;SDS011;46564;53.096;8.246;2023-06-22T02:06:53;18.98;;;7.90;;
60714;SDS011;46564;53.096;8.246;2023-06-22T02:11:57;12.88;;;7.43;;
60714;SDS011;46564;53.096;8.246;2023-06-22T02:17:02;14.85;;;7.70;;
60714;SDS011;46564;53.096;8.246;2023-06-22T02:22:05;15.95;;;8.00;;
60714;SDS011;46564;53.096;8.246;2023-06-22T02:27:07;15.15;;;7.70;;
60714;SDS011;46564;53.096;8.246;2023-06-22T02:32:09;14.25;;;7.20;;
60714;SDS011;46564;53.096;8.246;2023-06-22T02:37:13;13.15;;;7.53;;
60714;SDS011;46564;53.096;8.246;2023-06-22T02:42:15;12.18;;;7.30;;
60714;SDS011;46564;53.096;8.246;2023-06-22T02:47:22;13.45;;;7.20;;
60714;SDS011;46564;53.096;8.246;2023-06-22T02:52:24;15.40;;;6.13;;
60714;SDS011;46564;53.096;8.246;2023-06-22T02:57:26;12.25;;;6.28;;
60714;SDS011;46564;53.096;8.246;2023-06-22T03:02:28;15.10;;;6.68;;
60714;SDS011;46564;53.096;8.246;2023-06-22T03:07:30;13.88;;;6.57;;
60714;SDS011;46564;53.096;8.246;2023-06-22T03:12:32;15.80;;;7.75;;
60714;SDS011;46564;53.096;8.246;2023-06-22T03:17:34;15.93;;;7.70;;
60714;SDS011;46564;53.096;8.246;2023-06-22T03:22:40;14.77;;;7.47;;
60714;SDS011;46564;53.096;8.246;2023-06-22T03:27:42;12.55;;;6.53;;
60714;SDS011;46564;53.096;8.246;2023-06-22T03:32:47;12.43;;;6.95;;
60714;SDS011;46564;53.096;8.246;2023-06-22T03:37:50;12.75;;;7.15;;
60714;SDS011;46564;53.096;8.246;2023-06-22T03:42:51;15.70;;;7.68;;
60714;SDS011;46564;53.096;8.246;2023-06-22T03:47:53;14.18;;;6.97;;
60714;SDS011;46564;53.096;8.246;2023-06-22T03:52:55;17.80;;;9.07;;
60714;SDS011;46564;53.096;8.246;2023-06-22T03:57:56;16.38;;;8.93;;
60714;SDS011;46564;53.096;8.246;2023-06-22T04:02:58;16.55;;;8.95;;
60714;SDS011;46564;53.096;8.246;2023-06-22T04:08:00;18.10;;;8.73;;
60714;SDS011;46564;53.096;8.246;2023-06-22T04:13:02;16.33;;;8.57;;
60714;SDS011;46564;53.096;8.246;2023-06-22T04:18:04;19.25;;;10.68;;
60714;SDS011;46564;53.096;8.246;2023-06-22T04:23:06;16.73;;;8.68;;
60714;SDS011;46564;53.096;8.246;2023-06-22T04:28:07;16.70;;;8.85;;
60714;SDS011;46564;53.096;8.246;2023-06-22T04:33:14;17.63;;;10.27;;
60714;SDS011;46564;53.096;8.246;2023-06-22T04:38:16;19.55;;;9.73;;
60714;SDS011;46564;53.096;8.246;2023-06-22T04:43:18;18.50;;;8.77;;
60714;SDS011;46564;53.096;8.246;2023-06-22T04:48:19;18.77;;;8.52;;
60714;SDS011;46564;53.096;8.246;2023-06-22T04:53:21;17.15;;;9.00;;
60714;SDS011;46564;53.096;8.246;2023-06-22T04:58:22;15.45;;;8.98;;
60714;SDS011;46564;53.096;8.246;2023-06-22T05:03:30;20.25;;;8.95;;
60714;SDS011;46564;53.096;8.246;2023-06-22T05:08:32;15.90;;;9.55;;
60714;SDS011;46564;53.096;8.246;2023-06-22T05:13:34;16.55;;;8.38;;
60714;SDS011;46564;53.096;8.246;2023-06-22T05:18:35;17.17;;;8.50;;
60714;SDS011;46564;53.096;8.246;2023-06-22T05:23:40;13.18;;;6.72;;
60714;SDS011;46564;53.096;8.246;2023-06-22T05:28:42;21.67;;;9.55;;
60714;SDS011;46564;53.096;8.246;2023-06-22T05:33:47;16.83;;;8.75;;
60714;SDS011;46564;53.096;8.246;2023-06-22T05:38:50;12.05;;;7.22;;
60714;SDS011;46564;53.096;8.246;2023-06-22T05:43:53;12.15;;;6.90;;
60714;SDS011;46564;53.096;8.246;2023-06-22T05:48:55;14.95;;;7.53;;
60714;SDS011;46564;53.096;8.246;2023-06-22T05:53:57;13.55;;;7.78;;
60714;SDS011;46564;53.096;8.246;2023-06-22T05:58:59;13.93;;;7.53;;
60714;SDS011;46564;53.096;8.246;2023-06-22T06:04:01;14.57;;;6.28;;
60714;SDS011;46564;53.096;8.246;2023-06-22T06:09:05;10.95;;;6.18;;
60714;SDS011;46564;53.096;8.246;2023-06-22T06:14:08;15.32;;;7.03;;
60714;SDS011;46564;53.096;8.246;2023-06-22T06:19:10;16.98;;;7.30;;
60714;SDS011;46564;53.096;8.246;2023-06-22T06:24:12;13.75;;;6.88;;
60714;SDS011;46564;53.096;8.246;2023-06-22T06:29:13;12.68;;;7.13;;
60714;SDS011;46564;53.096;8.246;2023-06-22T06:34:17;11.88;;;6.35;;
60714;SDS011;46564;53.096;8.246;2023-06-22T06:39:19;14.23;;;6.95;;
60714;SDS011;46564;53.096;8.246;2023-06-22T06:44:21;11.38;;;6.05;;
60714;SDS011;46564;53.096;8.246;2023-06-22T06:54:25;11.40;;;5.65;;
60714;SDS011;46564;53.096;8.246;2023-06-22T06:59:26;11.35;;;5.30;;
60714;SDS011;46564;53.096;8.246;2023-06-22T07:04:30;9.70;;;5.15;;
60714;SDS011;46564;53.096;8.246;2023-06-22T07:09:32;13.10;;;4.72;;
60714;SDS011;46564;53.096;8.246;2023-06-22T07:14:33;9.95;;;4.95;;
60714;SDS011;46564;53.096;8.246;2023-06-22T07:19:35;8.82;;;4.38;;
60714;SDS011;46564;53.096;8.246;2023-06-22T07:24:37;8.52;;;3.47;;
60714;SDS011;46564;53.096;8.246;2023-06-22T07:29:38;9.50;;;4.38;;
60714;SDS011;46564;53.096;8.246;2023-06-22T07:34:44;8.07;;;3.35;;
60714;SDS011;46564;53.096;8.246;2023-06-22T07:39:46;8.70;;;4.63;;
60714;SDS011;46564;53.096;8.246;2023-06-22T07:44:47;6.88;;;3.58;;
60714;SDS011;46564;53.096;8.246;2023-06-22T07:49:49;7.50;;;3.15;;
60714;SDS011;46564;53.096;8.246;2023-06-22T07:54:50;8.55;;;3.28;;
60714;SDS011;46564;53.096;8.246;2023-06-22T07:59:52;10.65;;;3.58;;
60714;SDS011;46564;53.096;8.246;2023-06-22T08:04:54;10.48;;;3.47;;
60714;SDS011;46564;53.096;8.246;2023-06-22T08:10:16;5.43;;;2.28;;
60714;SDS011;46564;53.096;8.246;2023-06-22T08:15:18;5.72;;;2.75;;
60714;SDS011;46564;53.096;8.246;2023-06-22T08:20:20;6.57;;;2.28;;
60714;SDS011;46564;53.096;8.246;2023-06-22T08:25:22;5.85;;;2.85;;
60714;SDS011;46564;53.096;8.246;2023-06-22T08:35:25;6.10;;;2.72;;
60714;SDS011;46564;53.096;8.246;2023-06-22T08:40:27;6.60;;;2.90;;
60714;SDS011;46564;53.096;8.246;2023-06-22T08:45:30;8.02;;;3.00;;
60714;SDS011;46564;53.096;8.246;2023-06-22T08:50:33;7.70;;;2.72;;
60714;SDS011;46564;53.096;8.246;2023-06-22T08:55:34;5.07;;;2.65;;
60714;SDS011;46564;53.096;8.246;2023-06-22T09:00:36;7.63;;;2.80;;
60714;SDS011;46564;53.096;8.246;2023-06-22T09:05:38;8.73;;;2.78;;
60714;SDS011;46564;53.096;8.246;2023-06-22T09:10:40;5.65;;;2.50;;
60714;SDS011;46564;53.096;8.246;2023-06-22T09:15:42;7.07;;;2.70;;
60714;SDS011;46564;53.096;8.246;2023-06-22T09:20:44;4.45;;;1.90;;
60714;SDS011;46564;53.096;8.246;2023-06-22T09:25:46;3.75;;;1.80;;
60714;SDS011;46564;53.096;8.246;2023-06-22T09:30:49;4.40;;;1.83;;
60714;SDS011;46564;53.096;8.246;2023-06-22T09:35:51;5.38;;;2.30;;
60714;SDS011;46564;53.096;8.246;2023-06-22T09:40:52;7.20;;;1.98;;
60714;SDS011;46564;53.096;8.246;2023-06-22T09:45:54;3.70;;;1.40;;
60714;SDS011;46564;53.096;8.246;2023-06-22T09:50:56;6.07;;;2.30;;
60714;SDS011;46564;53.096;8.246;2023-06-22T09:55:57;4.82;;;2.15;;
60714;SDS011;46564;53.096;8.246;2023-06-22T10:00:59;4.72;;;2.05;;
60714;SDS011;46564;53.096;8.246;2023-06-22T10:06:01;3.72;;;1.85;;
60714;SDS011;46564;53.096;8.246;2023-06-22T10:11:03;4.18;;;1.70;;
60714;SDS011;46564;53.096;8.246;2023-06-22T10:16:05;3.88;;;1.88;;
60714;SDS011;46564;53.096;8.246;2023-06-22T10:21:08;4.80;;;2.03;;
60714;SDS011;46564;53.096;8.246;2023-06-22T10:26:10;5.90;;;2.50;;
60714;SDS011;46564;53.096;8.246;2023-06-22T10:31:12;5.70;;;1.98;;
60714;SDS011;46564;53.096;8.246;2023-06-22T10:36:13;8.13;;;3.08;;
60714;SDS011;46564;53.096;8.246;2023-06-22T10:41:15;5.13;;;2.47;;
60714;SDS011;46564;53.096;8.246;2023-06-22T10:46:18;6.70;;;2.53;;
60714;SDS011;46564;53.096;8.246;2023-06-22T10:51:19;6.63;;;2.55;;
60714;SDS011;46564;53.096;8.246;2023-06-22T10:56:21;5.13;;;2.50;;
60714;SDS011;46564;53.096;8.246;2023-06-22T11:01:23;4.28;;;2.25;;
60714;SDS011;46564;53.096;8.246;2023-06-22T11:06:28;5.82;;;2.63;;
60714;SDS011;46564;53.096;8.246;2023-06-22T11:11:30;4.78;;;2.38;;
60714;SDS011;46564;53.096;8.246;2023-06-22T11:16:31;6.13;;;3.03;;
60714;SDS011;46564;53.096;8.246;2023-06-22T11:21:33;4.05;;;2.15;;
60714;SDS011;46564;53.096;8.246;2023-06-22T11:26:35;5.85;;;2.58;;
60714;SDS011;46564;53.096;8.246;2023-06-22T11:31:37;4.97;;;2.53;;
60714;SDS011;46564;53.096;8.246;2023-06-22T11:36:39;5.18;;;2.25;;
60714;SDS011;46564;53.096;8.246;2023-06-22T11:41:41;4.80;;;2.40;;
60714;SDS011;46564;53.096;8.246;2023-06-22T11:46:43;7.03;;;2.85;;
60714;SDS011;46564;53.096;8.246;2023-06-22T11:51:45;5.55;;;2.50;;
60714;SDS011;46564;53.096;8.246;2023-06-22T11:56:46;5.40;;;2.45;;
60714;SDS011;46564;53.096;8.246;2023-06-22T12:01:48;6.15;;;2.65;;
60714;SDS011;46564;53.096;8.246;2023-06-22T12:06:52;5.10;;;2.33;;
60714;SDS011;46564;53.096;8.246;2023-06-22T12:11:53;5.25;;;2.20;;
60714;SDS011;46564;53.096;8.246;2023-06-22T12:16:55;5.60;;;2.22;;
60714;SDS011;46564;53.096;8.246;2023-06-22T12:21:57;5.90;;;2.45;;
60714;SDS011;46564;53.096;8.246;2023-06-22T12:26:58;5.50;;;2.67;;
60714;SDS011;46564;53.096;8.246;2023-06-22T12:32:00;5.90;;;2.38;;
60714;SDS011;46564;53.096;8.246;2023-06-22T12:37:02;8.45;;;3.15;;
60714;SDS011;46564;53.096;8.246;2023-06-22T12:42:03;7.50;;;2.92;;
60714;SDS011;46564;53.096;8.246;2023-06-22T12:47:05;6.68;;;2.45;;
60714;SDS011;46564;53.096;8.246;2023-06-22T12:52:10;7.28;;;2.70;;
60714;SDS011;46564;53.096;8.246;2023-06-22T12:57:12;6.57;;;3.10;;
60714;SDS011;46564;53.096;8.246;2023-06-22T13:02:14;9.32;;;3.83;;
60714;SDS011;46564;53.096;8.246;2023-06-22T13:07:16;6.13;;;2.70;;
60714;SDS011;46564;53.096;8.246;2023-06-22T13:12:23;4.82;;;2.55;;
60714;SDS011;46564;53.096;8.246;2023-06-22T13:17:25;5.95;;;2.70;;
60714;SDS011;46564;53.096;8.246;2023-06-22T13:22:34;5.90;;;2.20;;
60714;SDS011;46564;53.096;8.246;2023-06-22T13:27:44;6.05;;;2.67;;
60714;SDS011;46564;53.096;8.246;2023-06-22T13:32:46;6.75;;;3.00;;
60714;SDS011;46564;53.096;8.246;2023-06-22T13:37:47;5.47;;;2.83;;
60714;SDS011;46564;53.096;8.246;2023-06-22T13:42:49;5.00;;;2.67;;
60714;SDS011;46564;53.096;8.246;2023-06-22T13:47:50;6.38;;;2.70;;
60714;SDS011;46564;53.096;8.246;2023-06-22T13:52:52;7.30;;;2.92;;
60714;SDS011;46564;53.096;8.246;2023-06-22T13:57:54;6.00;;;2.90;;
60714;SDS011;46564;53.096;8.246;2023-06-22T14:02:56;5.50;;;2.50;;
60714;SDS011;46564;53.096;8.246;2023-06-22T14:07:57;5.15;;;2.90;;
60714;SDS011;46564;53.096;8.246;2023-06-22T14:12:59;6.43;;;2.53;;
60714;SDS011;46564;53.096;8.246;2023-06-22T14:18:01;6.20;;;2.80;;
60714;SDS011;46564;53.096;8.246;2023-06-22T14:23:03;7.22;;;2.75;;
60714;SDS011;46564;53.096;8.246;2023-06-22T14:28:04;7.65;;;2.90;;
60714;SDS011;46564;53.096;8.246;2023-06-22T14:33:06;5.60;;;2.55;;
60714;SDS011;46564;53.096;8.246;2023-06-22T14:38:08;7.93;;;3.10;;
60714;SDS011;46564;53.096;8.246;2023-06-22T14:43:09;5.72;;;2.65;;
60714;SDS011;46564;53.096;8.246;2023-06-22T14:48:11;5.90;;;2.67;;
60714;SDS011;46564;53.096;8.246;2023-06-22T14:53:12;6.07;;;3.00;;
60714;SDS011;46564;53.096;8.246;2023-06-22T14:58:15;6.07;;;2.70;;
60714;SDS011;46564;53.096;8.246;2023-06-22T15:03:17;6.15;;;2.78;;
60714;SDS011;46564;53.096;8.246;2023-06-22T15:08:23;7.05;;;2.97;;
60714;SDS011;46564;53.096;8.246;2023-06-22T15:13:25;5.53;;;2.63;;
60714;SDS011;46564;53.096;8.246;2023-06-22T15:18:27;6.07;;;2.35;;
60714;SDS011;46564;53.096;8.246;2023-06-22T15:23:29;4.50;;;2.10;;
60714;SDS011;46564;53.096;8.246;2023-06-22T15:28:31;5.45;;;2.13;;
60714;SDS011;46564;53.096;8.246;2023-06-22T15:33:34;7.13;;;2.50;;
60714;SDS011;46564;53.096;8.246;2023-06-22T15:38:38;5.93;;;2.47;;
60714;SDS011;46564;53.096;8.246;2023-06-22T15:43:40;6.00;;;2.67;;
60714;SDS011;46564;53.096;8.246;2023-06-22T15:48:42;7.15;;;2.50;;
60714;SDS011;46564;53.096;8.246;2023-06-22T15:53:44;6.28;;;2.13;;
60714;SDS011;46564;53.096;8.246;2023-06-22T15:58:46;4.05;;;2.33;;
60714;SDS011;46564;53.096;8.246;2023-06-22T16:03:51;5.00;;;2.05;;
60714;SDS011;46564;53.096;8.246;2023-06-22T16:08:52;5.68;;;2.35;;
60714;SDS011;46564;53.096;8.246;2023-06-22T16:13:54;7.13;;;2.55;;
60714;SDS011;46564;53.096;8.246;2023-06-22T16:18:56;6.85;;;2.85;;
60714;SDS011;46564;53.096;8.246;2023-06-22T16:23:57;4.95;;;2.40;;
60714;SDS011;46564;53.096;8.246;2023-06-22T16:28:59;5.88;;;2.15;;
60714;SDS011;46564;53.096;8.246;2023-06-22T16:34:01;5.13;;;2.10;;
60714;SDS011;46564;53.096;8.246;2023-06-22T16:39:03;4.20;;;2.00;;
60714;SDS011;46564;53.096;8.246;2023-06-22T16:44:05;7.15;;;2.58;;
60714;SDS011;46564;53.096;8.246;2023-06-22T16:49:08;5.03;;;2.38;;
60714;SDS011;46564;53.096;8.246;2023-06-22T16:54:10;6.18;;;2.47;;
60714;SDS011;46564;53.096;8.246;2023-06-22T16:59:14;5.40;;;2.47;;
60714;SDS011;46564;53.096;8.246;2023-06-22T17:04:16;4.55;;;2.00;;
60714;SDS011;46564;53.096;8.246;2023-06-22T17:09:22;3.40;;;1.70;;
60714;SDS011;46564;53.096;8.246;2023-06-22T17:14:27;3.30;;;1.52;;
60714;SDS011;46564;53.096;8.246;2023-06-22T17:19:29;3.15;;;1.55;;
60714;SDS011;46564;53.096;8.246;2023-06-22T17:24:33;3.95;;;2.10;;
60714;SDS011;46564;53.096;8.246;2023-06-22T17:29:37;3.97;;;1.65;;
60714;SDS011;46564;53.096;8.246;2023-06-22T17:34:38;4.50;;;1.48;;
60714;SDS011;46564;53.096;8.246;2023-06-22T17:39:40;2.30;;;1.23;;
60714;SDS011;46564;53.096;8.246;2023-06-22T17:44:59;2.72;;;1.30;;
60714;SDS011;46564;53.096;8.246;2023-06-22T17:50:05;2.28;;;1.20;;
60714;SDS011;46564;53.096;8.246;2023-06-22T17:55:08;2.65;;;1.10;;
60714;SDS011;46564;53.096;8.246;2023-06-22T18:00:12;2.08;;;1.10;;
60714;SDS011;46564;53.096;8.246;2023-06-22T18:05:17;3.45;;;1.38;;
60714;SDS011;46564;53.096;8.246;2023-06-22T18:10:31;4.20;;;1.92;;
60714;SDS011;46564;53.096;8.246;2023-06-22T18:15:34;2.42;;;1.15;;
60714;SDS011;46564;53.096;8.246;2023-06-22T18:20:39;4.80;;;1.98;;
60714;SDS011;46564;53.096;8.246;2023-06-22T18:25:42;2.33;;;1.38;;
60714;SDS011;46564;53.096;8.246;2023-06-22T18:30:46;5.50;;;1.75;;
60714;SDS011;46564;53.096;8.246;2023-06-22T18:35:48;5.63;;;1.83;;
60714;SDS011;46564;53.096;8.246;2023-06-22T18:40:52;3.17;;;1.45;;
60714;SDS011;46564;53.096;8.246;2023-06-22T18:45:54;8.05;;;2.40;;
60714;SDS011;46564;53.096;8.246;2023-06-22T18:51:03;5.03;;;2.05;;
60714;SDS011;46564;53.096;8.246;2023-06-22T18:56:12;4.53;;;1.75;;
60714;SDS011;46564;53.096;8.246;2023-06-22T19:01:16;9.25;;;2.17;;
60714;SDS011;46564;53.096;8.246;2023-06-22T19:12:16;4.45;;;1.85;;
60714;SDS011;46564;53.096;8.246;2023-06-22T19:17:22;4.43;;;1.58;;
60714;SDS011;46564;53.096;8.246;2023-06-22T19:22:40;3.08;;;1.60;;
60714;SDS011;46564;53.096;8.246;2023-06-22T19:27:46;6.30;;;1.83;;
60714;SDS011;46564;53.096;8.246;2023-06-22T19:32:49;5.28;;;1.85;;
60714;SDS011;46564;53.096;8.246;2023-06-22T19:37:51;2.80;;;1.67;;
60714;SDS011;46564;53.096;8.246;2023-06-22T19:42:53;4.00;;;1.40;;
60714;SDS011;46564;53.096;8.246;2023-06-22T19:47:58;7.63;;;2.08;;
60714;SDS011;46564;53.096;8.246;2023-06-22T19:52:59;4.00;;;1.65;;
60714;SDS011;46564;53.096;8.246;2023-06-22T19:58:01;3.08;;;1.60;;
60714;SDS011;46564;53.096;8.246;2023-06-22T20:03:06;5.70;;;1.77;;
60714;SDS011;46564;53.096;8.246;2023-06-22T20:08:10;3.33;;;1.63;;
60714;SDS011;46564;53.096;8.246;2023-06-22T20:13:18;3.50;;;1.73;;
60714;SDS011;46564;53.096;8.246;2023-06-22T20:18:23;5.53;;;1.90;;
60714;SDS011;46564;53.096;8.246;2023-06-22T20:23:28;4.80;;;1.73;;
60714;SDS011;46564;53.096;8.246;2023-06-22T20:28:29;9.52;;;1.83;;
60714;SDS011;46564;53.096;8.246;2023-06-22T20:33:31;3.85;;;1.77;;
60714;SDS011;46564;53.096;8.246;2023-06-22T20:38:35;10.65;;;3.35;;
60714;SDS011;46564;53.096;8.246;2023-06-22T20:43:37;3.88;;;2.20;;
60714;SDS011;46564;53.096;8.246;2023-06-22T20:48:39;4.10;;;2.20;;
60714;SDS011;46564;53.096;8.246;2023-06-22T20:53:41;5.70;;;2.50;;
60714;SDS011;46564;53.096;8.246;2023-06-22T20:58:42;7.05;;;3.67;;
60714;SDS011;46564;53.096;8.246;2023-06-22T21:03:44;4.90;;;2.60;;
60714;SDS011;46564;53.096;8.246;2023-06-22T21:08:46;5.55;;;2.60;;
60714;SDS011;46564;53.096;8.246;2023-06-22T21:13:47;7.70;;;3.20;;
60714;SDS011;46564;53.096;8.246;2023-06-22T21:18:49;3.80;;;2.25;;
60714;SDS011;46564;53.096;8.246;2023-06-22T21:23:51;5.05;;;2.20;;
60714;SDS011;46564;53.096;8.246;2023-06-22T21:28:52;4.13;;;1.70;;
60714;SDS011;46564;53.096;8.246;2023-06-22T21:33:54;3.60;;;1.63;;
60714;SDS011;46564;53.096;8.246;2023-06-22T21:38:56;4.85;;;2.38;;
60714;SDS011;46564;53.096;8.246;2023-06-22T21:43:57;9.57;;;2.50;;
60714;SDS011;46564;53.096;8.246;2023-06-22T21:48:59;4.78;;;2.42;;
60714;SDS011;46564;53.096;8.246;2023-06-22T21:54:00;4.50;;;2.20;;
60714;SDS011;46564;53.096;8.246;2023-06-22T21:59:02;5.55;;;2.65;;
60714;SDS011;46564;53.096;8.246;2023-06-22T22:04:04;6.22;;;2.50;;
60714;SDS011;46564;53.096;8.246;2023-06-22T22:09:07;4.78;;;2.08;;
60714;SDS011;46564;53.096;8.246;2023-06-22T22:14:09;5.43;;;1.90;;
60714;SDS011;46564;53.096;8.246;2023-06-22T22:19:11;6.03;;;1.88;;
60714;SDS011;46564;53.096;8.246;2023-06-22T22:24:14;5.03;;;2.05;;
60714;SDS011;46564;53.096;8.246;2023-06-22T22:29:16;3.50;;;2.15;;
60714;SDS011;46564;53.096;8.246;2023-06-22T22:34:18;6.00;;;3.03;;
60714;SDS011;46564;53.096;8.246;2023-06-22T22:39:29;5.18;;;2.60;;
60714;SDS011;46564;53.096;8.246;2023-06-22T22:44:32;13.18;;;3.20;;
60714;SDS011;46564;53.096;8.246;2023-06-22T22:49:33;3.45;;;2.05;;
60714;SDS011;46564;53.096;8.246;2023-06-22T22:54:35;3.97;;;2.35;;
60714;SDS011;46564;53.096;8.246;2023-06-22T22:59:37;5.32;;;2.45;;
60714;SDS011;46564;53.096;8.246;2023-06-22T23:04:38;6.07;;;2.95;;
60714;SDS011;46564;53.096;8.246;2023-06-22T23:09:41;4.38;;;2.05;;
60714;SDS011;46564;53.096;8.246;2023-06-22T23:14:42;4.32;;;2.00;;
60714;SDS011;46564;53.096;8.246;2023-06-22T23:19:44;5.90;;;2.55;;
60714;SDS011;46564;53.096;8.246;2023-06-22T23:24:47;3.05;;;1.83;;
60714;SDS011;46564;53.096;8.246;2023-06-22T23:29:49;13.43;;;2.50;;
60714;SDS011;46564;53.096;8.246;2023-06-22T23:34:51;3.08;;;1.80;;
60714;SDS011;46564;53.096;8.246;2023-06-22T23:39:53;5.28;;;1.58;;
60714;SDS011;46564;53.096;8.246;2023-06-22T23:44:54;3.10;;;1.65;;
60714;SDS011;46564;53.096;8.246;2023-06-22T23:49:56;2.95;;;1.63;;
60714;SDS011;46564;53.096;8.246;2023-06-22T23:54:57;3.65;;;1.75;;
60714;SDS011;46564;53.096;8.246;2023-06-22T23:59:59;3.95;;;1.85;;
